Ishigaki Airport
ROIG : now visible

Airfield :











YOU CAN JOIN US ON...

 
LOGIN :

Register | Disclaimer

   EN    FR    IT 

 









Legend :    VFR   Marginal VFR   IFR   Intensive IFR   Very Intensive IFR
Visi :
Ceiling :
>= 8 km
>= 3000ft
5 to 8 km
1000 to 3000 ft
1500m to 5 km
500 to 1000 ft
800 to 1500m
200 to 500 ft
< 800m
< 200 ft
Symbols :   Thunderstorms  Fog  Heavy snow  Heavy precipitations  Wind > 20 kt






- Airport Elevation : 93 ft
- IATA code : ISG


ROIG - Ishigaki

CURRENT METAR :
  • 232000Z AUTO 01007KT 9999 FEW013 OVC048 18/17 Q1020

EXPIRED METARs :
  • 231900Z AUTO 01007KT 9999 BKN029 OVC034 18/17 Q1020
  • 231800Z AUTO 02009KT 9999 FEW008 SCT011 OVC020 19/18 Q1021
  • 231700Z AUTO 01007KT 9999 FEW011 BKN014 18/17 Q1021
  • 231600Z AUTO 02008KT 9999 SCT013 BKN020 OVC021 19/17 Q1021

TAF TAF ROIG
Valid from the 23 at 18:00 until the 25 at 00:00 UTC


231707Z 2318/2500 02010KT 9999 FEW008 BKN012
RJJJ FIR / Asia



MET'MAP, your aeronautical weather chart ! - Copyright ORBIFLY December 2007 - Disclaimer

ORBIFLY MET'MAP TEAM :

Programming & Development : Alexandra Zaïnal
Original concept : Baudouin d'Aumeries
Technical & hardware support : Manuel Goepfert
Assistance : Marc-Olivier Méhu




SOURCES & CREDITS :

   NOAA       Earth
Advisory